Saint-Pierre の空港の天気 - METARとTAF

サンピエール空港 ( LFVP / FSP ) - サンピエール島・ミクロン島 Saint-Pierre
飛行場実況気象(Metar)
観測時間10/23 23:00 PMDT (10/24 01:00 UTC)
風向・風速南南西 2m/s
視程9000m
天気現象
全天を覆う雲 雲底高度 300m
気温13℃
湿度100%
気圧1013hPa
METARLFVP 240100Z 20004KT 170V240 9000 OVC010 13/13 Q1013 NOSIG
過去の天気等 Google飛行場航空写真 Wunderground天気予報

過去48時間のMETAR

飛行場予報(TAF)
発表時間: 10/23 15:00 PMDT (10/23 17:00 UTC)
予報対象時間: 23日16時 PMDT ~ 24日1時 PMDT
風向・風速南西 5m/s
視程500m
天気現象
全天を覆う雲 鉛直視程 30m
23日16時 PMDT ~ 24日1時 PMDT に一時的に
視程2500m
天気現象弱いしゅう雨 もや
全天の8割程度の雲 雲底高度 90m
全天を覆う雲 雲底高度 460m
23日22時 PMDT ~ 24日1時 PMDT に徐々に
風向・風速南 8m/s
23日22時 PMDT ~ 24日1時 PMDT に 確率 30% で一時的に
視程1800m
天気現象雷雨
全天の8割程度の雲 雲底高度 90m
全天を覆う積乱雲 雲底高度 460m
TAF LFVP 231700Z 2318/2403 22010KT 0500 FG VV001
TEMPO 2318/2403 2500 -SHRA BR BKN003 OVC015
BECMG 2400/2403 17015KT
PROB30 TEMPO 2400/2403 1800 TSRA BKN003 OVC015CB